Metsäpalo Mistä: 18-06-2019 07:53 Mihin asti: 11:00 Varoitus: Metsäpalo Taso: Keltainen info button
suomi:
Metsäpalovaroitus on voimassa.

Lähimmät METAR asemat

 

EFPO - Pori (mil/Civ), Finland
Distance from station: PLU 42km
Päivitetty: 18/06/2019 08:50
Selkeätä
Selkeätä
 Wind from LLO
Tuuli: LLO 20 km/h
Lämpötila: 17°C
Kastepiste: 10°C
Kosteus: 64%
Ilmanpaine: 1013 hPa
Yhteenveto: Selkeätä
Visibility: greater than 10 km
2019/06/18 05:50 EFPO 180550Z AUTO 24011KT CAVOK 17/10 Q1013
EFTU - Turku/Abo, Finland
Distance from station: E 68km
Päivitetty: 18/06/2019 08:50
Selkeätä
Selkeätä
 Wind from L
Tuuli: L 19 km/h
Lämpötila: 19°C
Kastepiste: 10°C
Kosteus: 56%
Ilmanpaine: 1014 hPa
Yhteenveto: Selkeätä
Visibility: greater than 10 km
2019/06/18 05:50 EFTU 180550Z AUTO 28010KT 250V330 CAVOK 19/10 Q1014
 
EFTP - Tampere/Pirkkala, Finland
Distance from station: IKO 84km
Päivitetty: 18/06/2019 08:50
Selkeätä
Selkeätä
 Wind from LLO
Tuuli: LLO 17 km/h
Lämpötila: 18°C
Kastepiste: 11°C
Kosteus: 64%
Ilmanpaine: 1013 hPa
Yhteenveto: Selkeätä
Visibility: greater than 10 km
2019/06/18 05:50 EFTP 180550Z 24009KT CAVOK 18/11 Q1013